Latest Coastal Weather Observations for Broome

IDW60701

Issued at 4:32 pm WST Friday 22 May 2015 (issued every 10 minutes, with the page automatically refreshed every 10 minutes)

About coastal observations | Map of coastal stations | Coastal observations for WA | Marine services | Other Formats
Station Details ID: 003003 Name: BROOME AIRPORT Lat: -17.95 Lon: 122.24 Height: 7.42 m
Data from the previous 72 hours. | See also: Recent months at Broome
Date/Time
WST
Temp

°C
Wind Pressure Rain
since 9am
mm
Weather Cloud Vis
km
Sea
Height
m
Swell
Dir
 
Speed
knots
Gust
knots
hPa Trend Height
m
Period
s
Dir
22/04:30pm 33.2 SSW 5 7 1013.0 - 0.0 - - 10 - - - -
22/04:00pm 33.5 S 5 7 1012.9 - 0.0 - - 10 - - - -
22/03:30pm 33.6 S 6 8 1012.9 - 0.0 - - 10 - - - -
22/03:00pm 33.6 S 6 8 1012.8 R 0.0 Fine Mostly clear 35 - - - -
22/02:30pm 33.4 SSE 7 8 1012.9 - 0.0 - - 10 - - - -
22/02:00pm 33.5 SSE 7 9 1013.1 - 0.0 - - 10 - - - -
22/01:30pm 33.4 SE 7 10 1013.3 - 0.0 - - 10 - - - -
22/01:00pm 32.9 SE 8 11 1013.6 - 0.0 - - 10 - - - -
22/12:30pm 32.5 SE 7 10 1014.1 - 0.0 - - 10 - - - -
22/12:00pm 32.6 ESE 7 9 1014.4 F 0.0 Fine Mostly clear 35 - - - -
22/11:30am 32.1 E 7 11 1015.1 - 0.0 - - 10 - - - -
22/11:00am 31.5 E 9 12 1015.5 - 0.0 - - 10 - - - -
22/10:30am 30.6 E 11 14 1015.9 - 0.0 - - 10 - - - -
22/09:00am 25.6 ESE 10 15 1016.9 S 0.0 Fine Mostly clear 40 - - - -
22/08:30am 23.7 ESE 9 12 1016.9 - 0.0 - - 10 - - - -
22/08:00am 22.7 ESE 10 13 1016.9 - 0.0 - - 10 - - - -
22/07:30am 22.2 ESE 9 12 1016.6 - 0.0 - - 10 - - - -
22/07:00am 21.0 E 7 9 1016.5 - 0.0 - - 10 - - - -
22/06:30am 20.0 ESE 7 8 1016.3 - 0.0 - - 10 - - - -
22/06:00am 21.1 ESE 7 9 1015.7 S 0.0 Fine Mostly clear 40 - - - -
22/05:30am 21.4 E 8 10 1015.4 - 0.0 - - 10 - - - -
22/05:00am 22.6 ESE 10 13 1015.4 - 0.0 - - 10 - - - -
22/04:30am 23.1 SE 10 16 1015.2 - 0.0 - - 10 - - - -
22/04:00am 23.0 SE 9 14 1015.1 - 0.0 - - 10 - - - -
22/03:30am 22.8 ESE 8 11 1014.9 - 0.0 - - 10 - - - -
22/03:00am 23.3 ESE 9 13 1014.8 - 0.0 - - 10 - - - -
22/02:30am 24.0 SE 11 15 1015.0 - 0.0 - - 10 - - - -
22/02:00am 21.0 E 4 5 1015.1 - 0.0 - - 10 - - - -
22/01:30am 21.4 SE 4 5 1015.2 - 0.0 - - 10 - - - -
22/01:00am 20.5 E 4 5 1015.4 - 0.0 - - 10 - - - -
22/12:30am 23.4 SE 4 6 1015.4 - 0.0 - - 10 - - - -
22/12:00am 24.0 SSE 5 6 1015.6 - 0.0 - - 10 - - - -
 
Date/Time
WST
Temp

°C
Wind Pressure Rain
since 9am
mm
Weather Cloud Vis
km
Sea
Height
m
Swell
Dir
 
Speed
knots
Gust
knots
hPa Trend Height
m
Period
s
Dir
21/11:30pm 22.0 ESE 4 5 1015.8 - 0.0 - - 10 - - - -
21/11:00pm 24.3 SE 5 6 1015.9 - 0.0 - - 10 - - - -
21/10:30pm 25.0 S 6 8 1016.2 - 0.0 - - 10 - - - -
21/10:00pm 25.6 S 7 9 1016.0 - 0.0 - - 10 - - - -
21/09:30pm 26.0 S 7 9 1016.0 - 0.0 - - 10 - - - -
21/09:00pm 26.2 S 7 10 1015.8 F 0.0 Smoke Mostly clear 30 - - - -
21/08:30pm 26.9 S 9 13 1015.9 - 0.0 - - 10 - - - -
21/08:00pm 27.2 SSW 9 12 1016.0 - 0.0 - - 10 - - - -
21/07:30pm 26.7 SSW 9 12 1015.8 - 0.0 - - 10 - - - -
21/07:00pm 26.6 SSW 10 12 1015.6 - 0.0 - - 10 - - - -
21/06:30pm 27.7 S 6 9 1015.3 - 0.0 - - 10 - - - -
21/06:00pm 28.6 S 7 10 1014.8 R 0.0 Smoke Partly cloudy 30 - - - -
21/05:30pm 29.3 S 6 9 1014.7 - 0.0 - - 10 - - - -
21/05:00pm 30.2 S 7 10 1014.3 - 0.0 - - 10 - - - -
21/04:30pm 32.2 S 6 10 1013.9 - 0.0 - - 10 - - - -
21/04:00pm 32.4 S 6 8 1013.6 - 0.0 - - 10 - - - -
21/03:30pm 32.3 S 6 9 1013.3 - 0.0 - - 10 - - - -
21/03:00pm 32.7 S 7 9 1013.2 S 0.0 Smoke Mostly clear 30 - - - -
21/02:30pm 33.4 SSE 7 9 1013.5 - 0.0 - - 10 - - - -
21/02:00pm 33.6 S 8 12 1013.6 - 0.0 - - 10 - - - -
21/01:30pm 33.0 SSE 8 11 1013.7 - 0.0 - - 10 - - - -
21/01:00pm 33.0 SE 9 13 1014.1 - 0.0 - - 10 - - - -
21/12:30pm 32.9 SE 9 14 1014.5 - 0.0 - - 10 - - - -
21/12:00pm 31.8 SE 10 13 1015.0 F 0.0 Fine Mostly clear 35 - - - -
21/11:30am 31.2 ESE 11 15 1015.8 - 0.0 - - 10 - - - -
21/11:00am 30.4 ESE 10 14 1016.2 - 0.0 - - 10 - - - -
21/10:30am 30.1 ESE 11 13 1016.7 - 0.0 - - 10 - - - -
21/10:00am 29.6 E 13 18 1017.1 - 0.0 - - 10 - - - -
21/09:30am 28.5 E 13 19 1017.3 - 0.0 - - 10 - - - -
21/09:00am 26.2 E 10 15 1017.4 F 0.0 Fine Mostly clear 40 - - - -
21/08:30am 23.9 SE 9 12 1017.5 - 0.0 - - 10 - - - -
21/08:00am 23.6 ESE 7 9 1017.3 - 0.0 - - 10 - - - -
21/07:30am 22.4 ESE 5 7 1017.1 - 0.0 - - 10 - - - -
21/07:00am 20.9 ESE 4 5 1016.7 - 0.0 - - 10 - - - -
21/06:30am 20.1 SE 5 6 1016.6 - 0.0 - Partly cloudy 10 - - - -
21/06:00am 19.4 ESE 5 7 1016.4 S 0.0 Fine Mostly clear 40 - - - -
21/05:30am 18.3 E 4 6 1016.1 - 0.0 - Partly cloudy 10 - - - -
21/05:00am 17.8 CALM 0 0 1015.5 - 0.0 - - 10 - - - -
21/04:30am 18.6 CALM 0 0 1015.4 - 0.0 - - 10 - - - -
21/04:00am 19.0 CALM 0 0 1015.4 - 0.0 - - 10 - - - -
21/03:30am 18.9 CALM 0 0 1015.6 - 0.0 - - 10 - - - -
21/03:00am 18.8 CALM 0 0 1015.5 - 0.0 - - 10 - - - -
21/02:30am 19.5 CALM 0 0 1015.7 - 0.0 - - 10 - - - -
21/02:00am 20.0 CALM 0 4 1015.8 - 0.0 - - 10 - - - -
21/01:30am 19.6 CALM 0 3 1015.9 - 0.0 - - 10 - - - -
21/01:00am 19.6 CALM 0 0 1016.1 - 0.0 - - 10 - - - -
21/12:30am 20.1 NNE 3 4 1016.2 - 0.0 - - 10 - - - -
21/12:00am 19.7 CALM 0 0 1016.1 - 0.0 - - 10 - - - -
 
Date/Time
WST
Temp

°C
Wind Pressure Rain
since 9am
mm
Weather Cloud Vis
km
Sea
Height
m
Swell
Dir
 
Speed
knots
Gust
knots
hPa Trend Height
m
Period
s
Dir
20/11:30pm 19.8 N 1 3 1016.3 - 0.0 - - 10 - - - -
20/11:00pm 19.7 CALM 0 0 1016.4 - 0.0 - - 10 - - - -
20/10:30pm 19.3 CALM 0 0 1016.5 - 0.0 - - 10 - - - -
20/10:00pm 19.8 CALM 0 0 1016.8 - 0.0 - - 10 - - - -
20/09:30pm 20.4 CALM 0 0 1016.7 - 0.0 - - 10 - - - -
20/09:00pm 23.4 SW 3 4 1016.7 F 0.0 Fine Clear 40 - - - -
20/08:30pm 23.6 SW 4 6 1016.9 - 0.0 - - 10 - - - -
20/08:00pm 23.8 SSW 4 6 1016.9 - 0.0 - - 10 - - - -
20/07:30pm 23.8 SW 4 5 1016.3 - 0.0 - - 10 - - - -
20/07:00pm 24.0 WSW 5 7 1016.0 - 0.0 - - 10 - - - -
20/06:30pm 24.3 WSW 7 9 1015.9 - 0.0 - - 10 - - - -
20/06:00pm 24.5 WSW 7 9 1015.3 S 0.0 Fine Clear 40 - - - -
20/05:30pm 25.0 WSW 8 11 1015.3 - 0.0 - - 10 - - - -
20/05:00pm 26.1 WSW 7 10 1014.8 - 0.0 - - 10 - - - -
20/04:30pm 27.3 WSW 9 11 1014.4 - 0.0 - - 10 - - - -
20/04:00pm 27.9 SW 8 10 1014.2 - 0.0 - - 10 - - - -
20/03:30pm 27.8 WSW 8 11 1014.3 - 0.0 - - 10 - - - -
20/03:00pm 28.0 W 9 11 1013.9 R 0.0 Fine Partly cloudy 40 - - - -
20/02:30pm 28.4 W 7 9 1013.8 - 0.0 - - 10 - - - -
20/02:00pm 28.8 W 8 11 1014.0 - 0.0 - - 10 - - - -
20/01:30pm 29.4 W 8 12 1013.9 - 0.0 - - 10 - - - -
20/01:00pm 29.8 W 7 9 1014.2 - 0.0 - - 10 - - - -
20/12:30pm 28.8 SW 5 8 1014.7 - 0.0 - - 10 - - - -
20/12:00pm 28.0 SW 7 9 1015.0 R 0.0 Fine Mostly clear 40 - - - -
20/11:30am 27.5 S 7 9 1015.6 - 0.0 - - 10 - - - -
20/11:00am 27.3 SSW 6 8 1016.0 - 0.0 - - 10 - - - -
20/10:30am 25.9 S 9 11 1016.3 - 0.0 - - 10 - - - -
20/10:00am 25.7 S 7 9 1016.5 - 0.0 - - 10 - - - -
20/09:30am 25.5 SSE 5 7 1016.6 - 0.0 - - 10 - - - -
20/09:00am 24.5 SE 5 6 1016.4 R 0.0 Fine Clear 40 - - - -
20/08:30am 23.4 SE 5 6 1016.4 - 0.0 - - 10 - - - -
20/08:00am 22.2 ESE 4 6 1016.1 - 0.0 - - 10 - - - -
20/07:30am 21.3 E 3 5 1015.9 - 0.0 - - 10 - - - -
20/07:00am 19.8 CALM 0 0 1015.7 - 0.0 - - 10 - - - -
20/06:30am 17.8 ESE 3 4 1015.5 - 0.0 - - 10 - - - -
20/06:00am 17.6 ESE 3 4 1015.0 F 0.0 Fine Clear 40 - - - -
20/05:30am 17.4 CALM 0 0 1014.8 - 0.0 - - 10 - - - -
20/05:00am 17.1 CALM 0 2 1014.5 - 0.0 - - 10 - - - -
20/04:30am 17.0 NNE 3 4 1014.3 - 0.0 - - 10 - - - -
20/04:00am 16.7 NNE 3 4 1014.6 - 0.0 - - 10 - - - -
20/03:30am 16.7 NNE 4 5 1014.5 - 0.0 - - 9 - - - -
20/03:00am 17.0 CALM 0 0 1014.5 - 0.0 - - 10 - - - -
20/02:30am 17.6 CALM 0 0 1014.7 - 0.0 - - 10 - - - -
20/02:00am 17.6 CALM 0 0 1014.7 - 0.0 - - 10 - - - -
20/01:40am 17.6 CALM 0 0 1014.8 - 0.0 - - 8 - - - -
20/01:30am 17.5 CALM 0 0 1014.9 - 0.0 - Partly cloudy 6 - - - -
20/01:20am 17.5 N 2 4 1014.8 - 0.0 - Partly cloudy 0.9 - - - -
20/01:09am 17.5 N 4 5 1014.9 - 0.0 - Partly cloudy 1 - - - -
20/01:00am 17.6 N 3 5 1014.9 - 0.0 - - 5 - - - -
20/12:37am 17.6 CALM 0 0 1015.2 - 0.0 - Partly cloudy 6 - - - -
20/12:30am 17.5 CALM 0 0 1015.2 - 0.0 - Partly cloudy 10 - - - -
20/12:00am 17.8 WNW 1 5 1015.2 - 0.0 - - 10 - - - -
 
Date/Time
WST
Temp

°C
Wind Pressure Rain
since 9am
mm
Weather Cloud Vis
km
Sea
Height
m
Swell
Dir
 
Speed
knots
Gust
knots
hPa Trend Height
m
Period
s
Dir
19/11:30pm 17.7 CALM 0 0 1015.6 - 0.0 - - 10 - - - -
19/11:00pm 18.0 CALM 0 0 1015.8 - 0.0 - - 10 - - - -
19/10:30pm 18.5 CALM 0 0 1015.9 - 0.0 - - 10 - - - -
19/10:00pm 18.8 CALM 0 0 1015.9 - 0.0 - - 10 - - - -
19/09:30pm 18.8 CALM 0 0 1015.8 - 0.0 - - 10 - - - -
19/09:00pm 19.5 CALM 0 0 1015.5 F 0.0 Fine Clear 40 - - - -
19/08:30pm 20.5 CALM 0 0 1015.6 - 0.0 - - 10 - - - -
19/08:00pm 23.1 WSW 4 6 1015.5 - 0.0 - - 10 - - - -
19/07:30pm 23.2 WSW 5 6 1015.1 - 0.0 - - 10 - - - -
19/07:00pm 23.7 WSW 7 10 1015.0 - 0.0 - - 10 - - - -
19/06:30pm 24.0 WSW 7 9 1014.7 - 0.0 - - 10 - - - -
19/06:00pm 24.2 WSW 8 13 1014.5 S 0.0 Fine Clear 40 - - - -
19/05:30pm 24.6 W 7 11 1014.2 - 0.0 - - 10 - - - -
19/05:00pm 25.9 W 8 12 1013.8 - 0.0 - - 10 - - - -

Other Formats:

Comma delimited format used in spreadsheet applications
http://www.bom.gov.au/fwo/IDW60701/IDW60701.94203.axf

JavaScript Object Notation format (JSON) in row-major order
http://www.bom.gov.au/fwo/IDW60701/IDW60701.94203.json